sensor_id;sensor_type;location;lat;lon;timestamp;pressure;altitude;pressure_sealevel;temperature;humidity
36748;BME280;22716;51.556;5.080;2024-01-06T00:01:13;99657.94;;;6.58;100.00
36748;BME280;22716;51.556;5.080;2024-01-06T00:03:43;99653.75;;;6.46;100.00
36748;BME280;22716;51.556;5.080;2024-01-06T00:06:12;99658.00;;;6.52;100.00
36748;BME280;22716;51.556;5.080;2024-01-06T00:08:38;99660.75;;;6.43;100.00
36748;BME280;22716;51.556;5.080;2024-01-06T00:11:07;99673.78;;;6.41;100.00
36748;BME280;22716;51.556;5.080;2024-01-06T00:13:35;99676.41;;;6.38;100.00
36748;BME280;22716;51.556;5.080;2024-01-06T00:16:05;99676.41;;;6.38;100.00
36748;BME280;22716;51.556;5.080;2024-01-06T00:18:36;99670.41;;;6.32;100.00
36748;BME280;22716;51.556;5.080;2024-01-06T00:21:05;99691.16;;;6.38;100.00
36748;BME280;22716;51.556;5.080;2024-01-06T00:23:33;99693.81;;;6.33;100.00
36748;BME280;22716;51.556;5.080;2024-01-06T00:26:03;99692.03;;;6.38;100.00
36748;BME280;22716;51.556;5.080;2024-01-06T00:28:32;99696.28;;;6.44;100.00
36748;BME280;22716;51.556;5.080;2024-01-06T00:31:01;99696.25;;;6.47;100.00
36748;BME280;22716;51.556;5.080;2024-01-06T00:33:29;99702.34;;;6.44;100.00
36748;BME280;22716;51.556;5.080;2024-01-06T00:36:00;99690.31;;;6.36;100.00
36748;BME280;22716;51.556;5.080;2024-01-06T00:38:29;99708.44;;;6.45;100.00
36748;BME280;22716;51.556;5.080;2024-01-06T00:40:57;99706.69;;;6.44;100.00
36748;BME280;22716;51.556;5.080;2024-01-06T00:43:26;99703.25;;;6.40;100.00
36748;BME280;22716;51.556;5.080;2024-01-06T00:45:55;99715.44;;;6.38;100.00
36748;BME280;22716;51.556;5.080;2024-01-06T00:48:23;99700.75;;;6.33;100.00
36748;BME280;22716;51.556;5.080;2024-01-06T00:50:52;99705.16;;;6.28;100.00
36748;BME280;22716;51.556;5.080;2024-01-06T00:53:24;99703.38;;;6.33;100.00
36748;BME280;22716;51.556;5.080;2024-01-06T00:55:52;99701.69;;;6.27;100.00
36748;BME280;22716;51.556;5.080;2024-01-06T00:58:21;99709.50;;;6.26;100.00
36748;BME280;22716;51.556;5.080;2024-01-06T01:00:49;99708.66;;;6.25;100.00
36748;BME280;22716;51.556;5.080;2024-01-06T01:03:18;99713.84;;;6.28;100.00
36748;BME280;22716;51.556;5.080;2024-01-06T01:05:46;99715.59;;;6.25;100.00
36748;BME280;22716;51.556;5.080;2024-01-06T01:08:15;99722.59;;;6.18;100.00
36748;BME280;22716;51.556;5.080;2024-01-06T01:10:46;99720.09;;;6.10;100.00
36748;BME280;22716;51.556;5.080;2024-01-06T01:13:15;99724.38;;;6.16;100.00
36748;BME280;22716;51.556;5.080;2024-01-06T01:15:43;99721.78;;;6.13;100.00
36748;BME280;22716;51.556;5.080;2024-01-06T01:18:12;99731.41;;;6.03;100.00
36748;BME280;22716;51.556;5.080;2024-01-06T01:20:41;99728.88;;;5.97;100.00
36748;BME280;22716;51.556;5.080;2024-01-06T01:23:10;99734.00;;;6.02;100.00
36748;BME280;22716;51.556;5.080;2024-01-06T01:25:38;99743.59;;;6.01;100.00
36748;BME280;22716;51.556;5.080;2024-01-06T01:28:10;99746.25;;;5.95;100.00
36748;BME280;22716;51.556;5.080;2024-01-06T01:30:38;99750.53;;;5.98;100.00
36748;BME280;22716;51.556;5.080;2024-01-06T01:33:07;99747.94;;;5.96;100.00
36748;BME280;22716;51.556;5.080;2024-01-06T01:35:35;99756.66;;;5.91;100.00
36748;BME280;22716;51.556;5.080;2024-01-06T01:38:04;99761.00;;;5.90;100.00
36748;BME280;22716;51.556;5.080;2024-01-06T01:40:32;99760.09;;;5.94;100.00
36748;BME280;22716;51.556;5.080;2024-01-06T01:43:01;99762.72;;;5.91;100.00
36748;BME280;22716;51.556;5.080;2024-01-06T01:45:32;99764.44;;;5.95;100.00
36748;BME280;22716;51.556;5.080;2024-01-06T01:48:01;99774.88;;;5.89;100.00
36748;BME280;22716;51.556;5.080;2024-01-06T01:50:29;99766.25;;;5.81;100.00
36748;BME280;22716;51.556;5.080;2024-01-06T01:52:58;99776.66;;;5.80;100.00
36748;BME280;22716;51.556;5.080;2024-01-06T01:55:28;99779.28;;;5.78;100.00
36748;BME280;22716;51.556;5.080;2024-01-06T01:57:56;99781.91;;;5.75;100.00
36748;BME280;22716;51.556;5.080;2024-01-06T02:00:25;99786.25;;;5.70;100.00
36748;BME280;22716;51.556;5.080;2024-01-06T02:02:56;99795.78;;;5.74;100.00
36748;BME280;22716;51.556;5.080;2024-01-06T02:05:27;99798.34;;;5.77;100.00
36748;BME280;22716;51.556;5.080;2024-01-06T02:07:55;99802.69;;;5.75;100.00
36748;BME280;22716;51.556;5.080;2024-01-06T02:10:24;99813.09;;;5.75;100.00
36748;BME280;22716;51.556;5.080;2024-01-06T02:12:53;99810.44;;;5.80;100.00
36748;BME280;22716;51.556;5.080;2024-01-06T02:15:22;99819.13;;;5.76;100.00
36748;BME280;22716;51.556;5.080;2024-01-06T02:17:51;99823.50;;;5.75;100.00
36748;BME280;22716;51.556;5.080;2024-01-06T02:20:24;99830.41;;;5.73;100.00
36748;BME280;22716;51.556;5.080;2024-01-06T02:22:56;99829.56;;;5.71;100.00
36748;BME280;22716;51.556;5.080;2024-01-06T02:25:26;99807.22;;;5.49;100.00
36748;BME280;22716;51.556;5.080;2024-01-06T02:27:54;99818.47;;;5.43;100.00
36748;BME280;22716;51.556;5.080;2024-01-06T02:30:23;99821.13;;;5.39;100.00
36748;BME280;22716;51.556;5.080;2024-01-06T02:32:52;99830.63;;;5.43;100.00
36748;BME280;22716;51.556;5.080;2024-01-06T02:35:20;99833.16;;;5.50;100.00
36748;BME280;22716;51.556;5.080;2024-01-06T02:37:49;99830.59;;;5.49;100.00
36748;BME280;22716;51.556;5.080;2024-01-06T02:40:20;99841.84;;;5.51;100.00
36748;BME280;22716;51.556;5.080;2024-01-06T02:42:49;99839.25;;;5.46;100.00
36748;BME280;22716;51.556;5.080;2024-01-06T02:45:17;99846.19;;;5.49;100.00
36748;BME280;22716;51.556;5.080;2024-01-06T02:47:46;99851.38;;;5.49;100.00
36748;BME280;22716;51.556;5.080;2024-01-06T02:50:14;99857.44;;;5.51;100.00
36748;BME280;22716;51.556;5.080;2024-01-06T02:52:43;99847.91;;;5.47;100.00
36748;BME280;22716;51.556;5.080;2024-01-06T02:55:12;99865.22;;;5.51;100.00
36748;BME280;22716;51.556;5.080;2024-01-06T02:57:43;99848.00;;;5.33;100.00
36748;BME280;22716;51.556;5.080;2024-01-06T03:00:12;99865.25;;;5.40;100.00
36748;BME280;22716;51.556;5.080;2024-01-06T03:02:41;99867.03;;;5.40;100.00
36748;BME280;22716;51.556;5.080;2024-01-06T03:05:10;99869.63;;;5.35;100.00
36748;BME280;22716;51.556;5.080;2024-01-06T03:07:38;99871.41;;;5.23;100.00
36748;BME280;22716;51.556;5.080;2024-01-06T03:10:08;99873.19;;;5.12;100.00
36748;BME280;22716;51.556;5.080;2024-01-06T03:12:36;99873.19;;;5.12;100.00
36748;BME280;22716;51.556;5.080;2024-01-06T03:15:08;99871.47;;;5.09;100.00
36748;BME280;22716;51.556;5.080;2024-01-06T03:17:37;99880.06;;;5.20;100.00
36748;BME280;22716;51.556;5.080;2024-01-06T03:20:07;99886.16;;;5.19;100.00
36748;BME280;22716;51.556;5.080;2024-01-06T03:22:36;99875.78;;;5.19;100.00
36748;BME280;22716;51.556;5.080;2024-01-06T03:25:06;99882.69;;;5.16;100.00
36748;BME280;22716;51.556;5.080;2024-01-06T03:27:35;99892.22;;;5.18;100.00
36748;BME280;22716;51.556;5.080;2024-01-06T03:30:05;99895.66;;;5.23;100.00
36748;BME280;22716;51.556;5.080;2024-01-06T03:32:36;99896.53;;;5.21;100.00
36748;BME280;22716;51.556;5.080;2024-01-06T03:35:05;99893.94;;;5.19;100.00
36748;BME280;22716;51.556;5.080;2024-01-06T03:37:34;99892.19;;;5.23;100.00
36748;BME280;22716;51.556;5.080;2024-01-06T03:40:04;99887.88;;;5.19;100.00
36748;BME280;22716;51.556;5.080;2024-01-06T03:42:32;99906.03;;;5.28;100.00
36748;BME280;22716;51.556;5.080;2024-01-06T03:45:02;99906.00;;;5.29;100.00
36748;BME280;22716;51.556;5.080;2024-01-06T03:47:31;99915.53;;;5.32;100.00
36748;BME280;22716;51.556;5.080;2024-01-06T03:50:04;99915.53;;;5.30;100.00
36748;BME280;22716;51.556;5.080;2024-01-06T03:52:32;99919.00;;;5.31;100.00
36748;BME280;22716;51.556;5.080;2024-01-06T03:55:01;99919.88;;;5.30;100.00
36748;BME280;22716;51.556;5.080;2024-01-06T03:57:29;99919.91;;;5.21;100.00
36748;BME280;22716;51.556;5.080;2024-01-06T03:59:58;99924.22;;;5.25;100.00
36748;BME280;22716;51.556;5.080;2024-01-06T04:02:26;99930.28;;;5.25;100.00
36748;BME280;22716;51.556;5.080;2024-01-06T04:04:55;99937.19;;;5.26;100.00
36748;BME280;22716;51.556;5.080;2024-01-06T04:07:26;99927.69;;;5.21;100.00
36748;BME280;22716;51.556;5.080;2024-01-06T04:09:55;99939.81;;;5.25;100.00
36748;BME280;22716;51.556;5.080;2024-01-06T04:12:23;99953.66;;;5.25;100.00
36748;BME280;22716;51.556;5.080;2024-01-06T04:14:52;99951.91;;;5.23;100.00
36748;BME280;22716;51.556;5.080;2024-01-06T04:17:20;99947.59;;;5.17;100.00
36748;BME280;22716;51.556;5.080;2024-01-06T04:19:49;99960.59;;;5.22;100.00
36748;BME280;22716;51.556;5.080;2024-01-06T04:22:17;99962.31;;;5.24;100.00
36748;BME280;22716;51.556;5.080;2024-01-06T04:24:48;99951.06;;;5.22;100.00
36748;BME280;22716;51.556;5.080;2024-01-06T04:27:17;99958.88;;;5.15;100.00
36748;BME280;22716;51.556;5.080;2024-01-06T04:29:46;99955.41;;;5.11;100.00
36748;BME280;22716;51.556;5.080;2024-01-06T04:32:18;99953.72;;;5.07;100.00
36748;BME280;22716;51.556;5.080;2024-01-06T04:34:47;99973.59;;;5.13;100.00
36748;BME280;22716;51.556;5.080;2024-01-06T04:37:15;99966.69;;;5.04;100.00
36748;BME280;22716;51.556;5.080;2024-01-06T04:39:44;99973.59;;;5.03;100.00
36748;BME280;22716;51.556;5.080;2024-01-06T04:42:15;99974.47;;;5.08;100.00
36748;BME280;22716;51.556;5.080;2024-01-06T04:44:45;99975.34;;;5.04;100.00
36748;BME280;22716;51.556;5.080;2024-01-06T04:47:13;99976.22;;;5.00;100.00
36748;BME280;22716;51.556;5.080;2024-01-06T04:49:42;99976.22;;;5.03;100.00
36748;BME280;22716;51.556;5.080;2024-01-06T04:52:11;99986.56;;;5.05;100.00
36748;BME280;22716;51.556;5.080;2024-01-06T04:54:39;99977.94;;;4.98;100.00
36748;BME280;22716;51.556;5.080;2024-01-06T04:57:08;99987.47;;;4.98;100.00
36748;BME280;22716;51.556;5.080;2024-01-06T04:59:39;99988.34;;;4.95;100.00
36748;BME280;22716;51.556;5.080;2024-01-06T05:02:07;99986.56;;;5.02;100.00
36748;BME280;22716;51.556;5.080;2024-01-06T05:04:36;100000.44;;;4.96;100.00
36748;BME280;22716;51.556;5.080;2024-01-06T05:07:05;99997.00;;;4.85;100.00
36748;BME280;22716;51.556;5.080;2024-01-06T05:09:33;99995.25;;;4.86;100.00
36748;BME280;22716;51.556;5.080;2024-01-06T05:12:02;100000.47;;;4.84;100.00
36748;BME280;22716;51.556;5.080;2024-01-06T05:14:31;99992.69;;;4.83;100.00
36748;BME280;22716;51.556;5.080;2024-01-06T05:17:02;100002.19;;;4.85;100.00
36748;BME280;22716;51.556;5.080;2024-01-06T05:19:31;100016.88;;;4.88;100.00
36748;BME280;22716;51.556;5.080;2024-01-06T05:22:00;100021.25;;;4.84;100.00
36748;BME280;22716;51.556;5.080;2024-01-06T05:24:28;100026.41;;;4.83;100.00
36748;BME280;22716;51.556;5.080;2024-01-06T05:26:57;100021.25;;;4.84;100.00
36748;BME280;22716;51.556;5.080;2024-01-06T05:29:25;100033.31;;;4.88;100.00
36748;BME280;22716;51.556;5.080;2024-01-06T05:31:54;100038.53;;;4.88;100.00
36748;BME280;22716;51.556;5.080;2024-01-06T05:34:25;100039.38;;;4.87;100.00
36748;BME280;22716;51.556;5.080;2024-01-06T05:36:53;100047.19;;;4.84;100.00
36748;BME280;22716;51.556;5.080;2024-01-06T05:39:22;100039.38;;;4.86;100.00
36748;BME280;22716;51.556;5.080;2024-01-06T05:41:50;100036.81;;;4.84;100.00
36748;BME280;22716;51.556;5.080;2024-01-06T05:44:19;100045.44;;;4.77;100.00
36748;BME280;22716;51.556;5.080;2024-01-06T05:46:48;100045.44;;;4.80;100.00
36748;BME280;22716;51.556;5.080;2024-01-06T05:49:16;100042.00;;;4.78;100.00
36748;BME280;22716;51.556;5.080;2024-01-06T05:51:47;100044.59;;;4.80;100.00
36748;BME280;22716;51.556;5.080;2024-01-06T05:54:16;100048.03;;;4.79;100.00
36748;BME280;22716;51.556;5.080;2024-01-06T05:56:44;100041.97;;;4.74;100.00
36748;BME280;22716;51.556;5.080;2024-01-06T05:59:13;100052.38;;;4.78;100.00
36748;BME280;22716;51.556;5.080;2024-01-06T06:01:41;100060.16;;;4.83;100.00
36748;BME280;22716;51.556;5.080;2024-01-06T06:04:11;100057.56;;;4.83;100.00
36748;BME280;22716;51.556;5.080;2024-01-06T06:06:39;100062.75;;;4.83;100.00
36748;BME280;22716;51.556;5.080;2024-01-06T06:09:11;100064.50;;;4.81;100.00
36748;BME280;22716;51.556;5.080;2024-01-06T06:11:39;100077.47;;;4.78;100.00
36748;BME280;22716;51.556;5.080;2024-01-06T06:14:08;100088.72;;;4.75;100.00
36748;BME280;22716;51.556;5.080;2024-01-06T06:16:37;100087.81;;;4.70;100.00
36748;BME280;22716;51.556;5.080;2024-01-06T06:19:06;100090.41;;;4.73;100.00
36748;BME280;22716;51.556;5.080;2024-01-06T06:21:34;100087.84;;;4.78;100.00
36748;BME280;22716;51.556;5.080;2024-01-06T06:24:04;100099.09;;;4.81;100.00
36748;BME280;22716;51.556;5.080;2024-01-06T06:26:35;100105.13;;;4.85;100.00
36748;BME280;22716;51.556;5.080;2024-01-06T06:29:05;100106.88;;;4.81;100.00
36748;BME280;22716;51.556;5.080;2024-01-06T06:31:33;100103.41;;;4.78;100.00
36748;BME280;22716;51.556;5.080;2024-01-06T06:34:02;100112.91;;;4.67;100.00
36748;BME280;22716;51.556;5.080;2024-01-06T06:36:30;100116.34;;;4.70;100.00
36748;BME280;22716;51.556;5.080;2024-01-06T06:38:59;100108.59;;;4.66;100.00
36748;BME280;22716;51.556;5.080;2024-01-06T06:41:27;100122.41;;;4.68;100.00
36748;BME280;22716;51.556;5.080;2024-01-06T06:43:58;100124.13;;;4.58;100.00
36748;BME280;22716;51.556;5.080;2024-01-06T06:46:27;100132.75;;;4.52;100.00
36748;BME280;22716;51.556;5.080;2024-01-06T06:48:55;100120.66;;;4.51;100.00
36748;BME280;22716;51.556;5.080;2024-01-06T06:51:24;100142.28;;;4.49;100.00
36748;BME280;22716;51.556;5.080;2024-01-06T06:53:53;100128.44;;;4.45;100.00
36748;BME280;22716;51.556;5.080;2024-01-06T06:56:22;100150.97;;;4.63;100.00
36748;BME280;22716;51.556;5.080;2024-01-06T06:58:51;100133.66;;;4.62;100.00
36748;BME280;22716;51.556;5.080;2024-01-06T07:01:22;100151.81;;;4.73;100.00
36748;BME280;22716;51.556;5.080;2024-01-06T07:03:51;100161.38;;;4.72;100.00
36748;BME280;22716;51.556;5.080;2024-01-06T07:06:20;100158.75;;;4.68;100.00
36748;BME280;22716;51.556;5.080;2024-01-06T07:08:48;100159.63;;;4.68;100.00
36748;BME280;22716;51.556;5.080;2024-01-06T07:11:18;100170.00;;;4.73;100.00
36748;BME280;22716;51.556;5.080;2024-01-06T07:13:47;100181.22;;;4.70;100.00
36748;BME280;22716;51.556;5.080;2024-01-06T07:16:15;100182.06;;;4.62;100.00
36748;BME280;22716;51.556;5.080;2024-01-06T07:18:46;100184.69;;;4.65;100.00
36748;BME280;22716;51.556;5.080;2024-01-06T07:21:15;100191.59;;;4.67;100.00
36748;BME280;22716;51.556;5.080;2024-01-06T07:23:44;100186.41;;;4.64;100.00
36748;BME280;22716;51.556;5.080;2024-01-06T07:26:13;100194.19;;;4.67;100.00
36748;BME280;22716;51.556;5.080;2024-01-06T07:28:41;100190.75;;;4.65;100.00
36748;BME280;22716;51.556;5.080;2024-01-06T07:31:10;100195.06;;;4.63;100.00
36748;BME280;22716;51.556;5.080;2024-01-06T07:33:38;100202.84;;;4.63;100.00
36748;BME280;22716;51.556;5.080;2024-01-06T07:36:10;100195.06;;;4.62;100.00
36748;BME280;22716;51.556;5.080;2024-01-06T07:38:39;100202.84;;;4.57;100.00
36748;BME280;22716;51.556;5.080;2024-01-06T07:41:08;100207.16;;;4.52;100.00
36748;BME280;22716;51.556;5.080;2024-01-06T07:43:36;100214.06;;;4.55;100.00
36748;BME280;22716;51.556;5.080;2024-01-06T07:46:05;100217.53;;;4.57;100.00
36748;BME280;22716;51.556;5.080;2024-01-06T07:48:35;100217.53;;;4.60;100.00
36748;BME280;22716;51.556;5.080;2024-01-06T07:51:04;100221.84;;;4.59;100.00
36748;BME280;22716;51.556;5.080;2024-01-06T07:53:35;100217.50;;;4.55;100.00
36748;BME280;22716;51.556;5.080;2024-01-06T07:56:04;100221.84;;;4.53;100.00
36748;BME280;22716;51.556;5.080;2024-01-06T07:58:32;100223.63;;;4.63;100.00
36748;BME280;22716;51.556;5.080;2024-01-06T08:01:01;100225.31;;;4.52;100.00
36748;BME280;22716;51.556;5.080;2024-01-06T08:03:29;100235.69;;;4.52;100.00
36748;BME280;22716;51.556;5.080;2024-01-06T08:05:58;100239.16;;;4.54;100.00
36748;BME280;22716;51.556;5.080;2024-01-06T08:08:27;100242.59;;;4.53;100.00
36748;BME280;22716;51.556;5.080;2024-01-06T08:10:58;100257.28;;;4.56;100.00
36748;BME280;22716;51.556;5.080;2024-01-06T08:13:26;100261.63;;;4.61;100.00
36748;BME280;22716;51.556;5.080;2024-01-06T08:15:55;100264.22;;;4.61;100.00
36748;BME280;22716;51.556;5.080;2024-01-06T08:18:24;100273.75;;;4.59;100.00
36748;BME280;22716;51.556;5.080;2024-01-06T08:20:53;100265.97;;;4.58;100.00
36748;BME280;22716;51.556;5.080;2024-01-06T08:23:22;100273.75;;;4.58;100.00
36748;BME280;22716;51.556;5.080;2024-01-06T08:25:51;100278.03;;;4.56;100.00
36748;BME280;22716;51.556;5.080;2024-01-06T08:28:22;100282.38;;;4.52;100.00
36748;BME280;22716;51.556;5.080;2024-01-06T08:30:51;100285.81;;;4.51;100.00
36748;BME280;22716;51.556;5.080;2024-01-06T08:33:20;100283.22;;;4.52;100.00
36748;BME280;22716;51.556;5.080;2024-01-06T08:35:48;100288.38;;;4.49;100.00
36748;BME280;22716;51.556;5.080;2024-01-06T08:38:17;100289.25;;;4.50;100.00
36748;BME280;22716;51.556;5.080;2024-01-06T08:40:48;100294.47;;;4.53;100.00
36748;BME280;22716;51.556;5.080;2024-01-06T08:43:18;100284.97;;;4.49;100.00
36748;BME280;22716;51.556;5.080;2024-01-06T08:45:49;100282.34;;;4.50;100.00
36748;BME280;22716;51.556;5.080;2024-01-06T08:48:18;100299.63;;;4.50;100.00
36748;BME280;22716;51.556;5.080;2024-01-06T08:50:47;100294.44;;;4.47;100.00
36748;BME280;22716;51.556;5.080;2024-01-06T08:53:16;100297.94;;;4.52;100.00
36748;BME280;22716;51.556;5.080;2024-01-06T08:55:45;100310.09;;;4.62;100.00
36748;BME280;22716;51.556;5.080;2024-01-06T08:58:13;100314.41;;;4.60;100.00
36748;BME280;22716;51.556;5.080;2024-01-06T09:00:43;100323.03;;;4.56;100.00
36748;BME280;22716;51.556;5.080;2024-01-06T09:03:14;100329.09;;;4.57;100.00
36748;BME280;22716;51.556;5.080;2024-01-06T09:05:43;100331.66;;;4.55;100.00
36748;BME280;22716;51.556;5.080;2024-01-06T09:08:12;100341.16;;;4.53;100.00
36748;BME280;22716;51.556;5.080;2024-01-06T09:10:40;100338.56;;;4.48;100.00
36748;BME280;22716;51.556;5.080;2024-01-06T09:13:09;100339.47;;;4.52;100.00
36748;BME280;22716;51.556;5.080;2024-01-06T09:15:37;100350.66;;;4.52;100.00
36748;BME280;22716;51.556;5.080;2024-01-06T09:18:06;100343.75;;;4.48;100.00
36748;BME280;22716;51.556;5.080;2024-01-06T09:20:37;100348.06;;;4.48;100.00
36748;BME280;22716;51.556;5.080;2024-01-06T09:23:06;100354.13;;;4.50;100.00
36748;BME280;22716;51.556;5.080;2024-01-06T09:25:35;100355.81;;;4.45;100.00
36748;BME280;22716;51.556;5.080;2024-01-06T09:28:05;100364.47;;;4.44;100.00
36748;BME280;22716;51.556;5.080;2024-01-06T09:30:34;100365.34;;;4.44;100.00
36748;BME280;22716;51.556;5.080;2024-01-06T09:33:03;100373.97;;;4.42;100.00
36748;BME280;22716;51.556;5.080;2024-01-06T09:35:33;100373.09;;;4.41;100.00
36748;BME280;22716;51.556;5.080;2024-01-06T09:38:04;100371.34;;;4.39;100.00
36748;BME280;22716;51.556;5.080;2024-01-06T09:40:34;100377.38;;;4.38;100.00
36748;BME280;22716;51.556;5.080;2024-01-06T09:43:04;100373.06;;;4.34;100.00
36748;BME280;22716;51.556;5.080;2024-01-06T09:45:32;100395.56;;;4.41;100.00
36748;BME280;22716;51.556;5.080;2024-01-06T09:48:10;100398.19;;;4.44;100.00
36748;BME280;22716;51.556;5.080;2024-01-06T09:50:40;100399.88;;;4.40;100.00
36748;BME280;22716;51.556;5.080;2024-01-06T09:53:13;100403.31;;;4.38;100.00
36748;BME280;22716;51.556;5.080;2024-01-06T09:55:42;100410.22;;;4.37;100.00
36748;BME280;22716;51.556;5.080;2024-01-06T09:58:17;100410.22;;;4.34;100.00
36748;BME280;22716;51.556;5.080;2024-01-06T10:00:48;100409.34;;;4.35;100.00
36748;BME280;22716;51.556;5.080;2024-01-06T10:03:17;100409.38;;;4.38;100.00
36748;BME280;22716;51.556;5.080;2024-01-06T10:05:46;100411.09;;;4.36;100.00
36748;BME280;22716;51.556;5.080;2024-01-06T10:08:17;100403.31;;;4.33;100.00
36748;BME280;22716;51.556;5.080;2024-01-06T10:10:46;100412.00;;;4.40;100.00
36748;BME280;22716;51.556;5.080;2024-01-06T10:13:16;100423.25;;;4.43;100.00
36748;BME280;22716;51.556;5.080;2024-01-06T10:15:45;100418.97;;;4.48;100.00
36748;BME280;22716;51.556;5.080;2024-01-06T10:18:14;100424.16;;;4.50;100.00
36748;BME280;22716;51.556;5.080;2024-01-06T10:20:44;100425.03;;;4.46;100.00
36748;BME280;22716;51.556;5.080;2024-01-06T10:23:13;100433.66;;;4.48;100.00
36748;BME280;22716;51.556;5.080;2024-01-06T10:25:44;100437.13;;;4.50;100.00
36748;BME280;22716;51.556;5.080;2024-01-06T10:28:13;100435.41;;;4.50;100.00
36748;BME280;22716;51.556;5.080;2024-01-06T10:30:42;100442.31;;;4.50;100.00
36748;BME280;22716;51.556;5.080;2024-01-06T10:33:11;100438.91;;;4.54;100.00
36748;BME280;22716;51.556;5.080;2024-01-06T10:35:39;100445.81;;;4.53;100.00
36748;BME280;22716;51.556;5.080;2024-01-06T10:38:08;100451.75;;;4.39;100.00
36748;BME280;22716;51.556;5.080;2024-01-06T10:40:36;100442.22;;;4.36;100.00
36748;BME280;22716;51.556;5.080;2024-01-06T10:43:09;100449.22;;;4.49;100.00
36748;BME280;22716;51.556;5.080;2024-01-06T10:45:38;100454.44;;;4.52;100.00
36748;BME280;22716;51.556;5.080;2024-01-06T10:48:07;100455.31;;;4.53;100.00
36748;BME280;22716;51.556;5.080;2024-01-06T10:50:36;100464.84;;;4.56;100.00
36748;BME280;22716;51.556;5.080;2024-01-06T10:53:05;100461.38;;;4.52;100.00
36748;BME280;22716;51.556;5.080;2024-01-06T10:55:34;100457.94;;;4.55;100.00
36748;BME280;22716;51.556;5.080;2024-01-06T10:58:09;100457.84;;;4.44;100.00
36748;BME280;22716;51.556;5.080;2024-01-06T11:00:37;100460.41;;;4.41;100.00
36748;BME280;22716;51.556;5.080;2024-01-06T11:03:06;100451.75;;;4.39;100.00
36748;BME280;22716;51.556;5.080;2024-01-06T11:05:37;100471.75;;;4.49;100.00
36748;BME280;22716;51.556;5.080;2024-01-06T11:08:06;100468.28;;;4.53;100.00
36748;BME280;22716;51.556;5.080;2024-01-06T11:10:36;100465.75;;;4.59;100.00
36748;BME280;22716;51.556;5.080;2024-01-06T11:13:09;100470.97;;;4.62;100.00
36748;BME280;22716;51.556;5.080;2024-01-06T11:15:40;100462.34;;;4.66;100.00
36748;BME280;22716;51.556;5.080;2024-01-06T11:18:09;100472.75;;;4.69;100.00
36748;BME280;22716;51.556;5.080;2024-01-06T11:20:37;100467.56;;;4.69;100.00
36748;BME280;22716;51.556;5.080;2024-01-06T11:23:18;100476.19;;;4.68;100.00
36748;BME280;22716;51.556;5.080;2024-01-06T11:25:47;100467.53;;;4.65;100.00
36748;BME280;22716;51.556;5.080;2024-01-06T11:28:19;100469.25;;;4.64;100.00
36748;BME280;22716;51.556;5.080;2024-01-06T11:31:05;100477.88;;;4.62;100.00
36748;BME280;22716;51.556;5.080;2024-01-06T11:33:41;100476.19;;;4.65;100.00
36748;BME280;22716;51.556;5.080;2024-01-06T11:36:10;100482.22;;;4.63;100.00
36748;BME280;22716;51.556;5.080;2024-01-06T11:38:40;100487.44;;;4.66;100.00
36748;BME280;22716;51.556;5.080;2024-01-06T11:44:33;100475.31;;;4.68;100.00
36748;BME280;22716;51.556;5.080;2024-01-06T11:47:02;100487.38;;;4.61;100.00
36748;BME280;22716;51.556;5.080;2024-01-06T11:49:31;100486.50;;;4.59;100.00
36748;BME280;22716;51.556;5.080;2024-01-06T11:52:00;100496.03;;;4.60;100.00
36748;BME280;22716;51.556;5.080;2024-01-06T11:54:28;100490.81;;;4.59;100.00
36748;BME280;22716;51.556;5.080;2024-01-06T11:56:57;100497.75;;;4.61;100.00
36748;BME280;22716;51.556;5.080;2024-01-06T11:59:26;100489.91;;;4.55;100.00
36748;BME280;22716;51.556;5.080;2024-01-06T12:01:58;100502.03;;;4.53;100.00
36748;BME280;22716;51.556;5.080;2024-01-06T12:04:27;100496.81;;;4.50;100.00
36748;BME280;22716;51.556;5.080;2024-01-06T12:07:05;100498.59;;;4.56;100.00
36748;BME280;22716;51.556;5.080;2024-01-06T12:09:33;100495.13;;;4.57;100.00
36748;BME280;22716;51.556;5.080;2024-01-06T12:12:03;100499.47;;;4.56;100.00
36748;BME280;22716;51.556;5.080;2024-01-06T12:14:33;100496.00;;;4.59;100.00
36748;BME280;22716;51.556;5.080;2024-01-06T12:17:04;100493.41;;;4.59;100.00
36748;BME280;22716;51.556;5.080;2024-01-06T12:19:33;100496.84;;;4.56;100.00
36748;BME280;22716;51.556;5.080;2024-01-06T12:22:02;100496.84;;;4.51;100.00
36748;BME280;22716;51.556;5.080;2024-01-06T12:24:31;100498.56;;;4.51;100.00
36748;BME280;22716;51.556;5.080;2024-01-06T12:27:00;100498.56;;;4.51;100.00
36748;BME280;22716;51.556;5.080;2024-01-06T12:29:28;100500.31;;;4.55;100.00
36748;BME280;22716;51.556;5.080;2024-01-06T12:31:59;100496.88;;;4.55;100.00
36748;BME280;22716;51.556;5.080;2024-01-06T12:34:30;100499.47;;;4.55;100.00
36748;BME280;22716;51.556;5.080;2024-01-06T12:37:00;100501.19;;;4.56;100.00
36748;BME280;22716;51.556;5.080;2024-01-06T12:39:30;100501.19;;;4.56;100.00
36748;BME280;22716;51.556;5.080;2024-01-06T12:42:01;100497.72;;;4.52;100.00
36748;BME280;22716;51.556;5.080;2024-01-06T12:44:30;100502.06;;;4.55;100.00
36748;BME280;22716;51.556;5.080;2024-01-06T12:47:02;100499.47;;;4.55;100.00
36748;BME280;22716;51.556;5.080;2024-01-06T12:49:33;100503.72;;;4.48;100.00
36748;BME280;22716;51.556;5.080;2024-01-06T12:52:02;100495.06;;;4.47;100.00
36748;BME280;22716;51.556;5.080;2024-01-06T12:54:30;100497.72;;;4.52;100.00
36748;BME280;22716;51.556;5.080;2024-01-06T12:56:59;100495.94;;;4.49;100.00
36748;BME280;22716;51.556;5.080;2024-01-06T12:59:28;100508.06;;;4.50;100.00
36748;BME280;22716;51.556;5.080;2024-01-06T13:01:57;100500.34;;;4.57;100.00
36748;BME280;22716;51.556;5.080;2024-01-06T13:04:26;100499.53;;;4.64;100.00
36748;BME280;22716;51.556;5.080;2024-01-06T13:06:57;100498.72;;;4.69;100.00
36748;BME280;22716;51.556;5.080;2024-01-06T13:09:26;100500.41;;;4.67;100.00